Observations for SOUTHAMPTON WX CNTR, United Kingdom (EGHI)

EGHI 201950Z 19005KT 160V220 CAVOK 07/06 Q1022  
EGHI 201920Z 19004KT 160V220 CAVOK 07/06 Q1022  
EGHI 201850Z 18004KT 150V220 9999 FEW015 08/06 Q1022
EGHI 201820Z VRB03KT 9999 FEW015 08/05 Q1021
EGHI 201750Z 19006KT 160V220 9999 FEW015 08/06 Q1021
EGHI 201720Z 20008KT 140V240 9999 SCT016 09/06 Q1021
EGHI 201650Z 21009KT 180V240 9999 SCT016 09/06 Q1021
EGHI 201620Z 20010KT 170V230 9999 FEW019 10/05 Q1021
EGHI 201550Z 20011KT 9999 FEW019 10/06 Q1021
EGHI 201520Z 22010KT 9999 SCT019 10/06 Q1021
EGHI 201450Z 20013KT 9999 BKN019 10/06 Q1021
EGHI 201420Z 21011KT 180V240 9999 SCT016 10/06 Q1020
EGHI 201350Z 20012KT 170V230 9999 BKN025 10/06 Q1021
EGHI 201320Z 20013KT 170V230 9999 BKN022 10/05 Q1021
EGHI 201250Z 22012KT 180V250 9999 BKN020 10/06 Q1021
EGHI 201220Z 21012KT 180V240 9999 BKN017 10/06 Q1021
EGHI 201150Z 20012KT 9999 BKN016 10/06 Q1021
EGHI 201120Z 20011KT 170V260 9999 BKN016 09/06 Q1021
EGHI 201050Z 19010KT 160V220 9999 BKN014 09/06 Q1021
EGHI 201020Z 20011KT 9999 BKN012 08/06 Q1021
EGHI 200950Z 19009KT 160V220 9999 BKN012 08/06 Q1020
EGHI 200920Z 20011KT 160V220 9999 BKN010 08/06 Q1020
EGHI 200850Z 19010KT 150V230 9999 BKN010 08/06 Q1020
EGHI 200820Z 18009KT 140V210 9999 FEW010 BKN018 07/06 Q1020 
EGHI 200750Z 18008KT 140V210 9999 FEW010 SCT018 07/06 Q1019 
EGHI 200720Z 17005KT 130V200 9999 FEW015 07/05 Q1019
EGHI 200650Z 19007KT 9999 FEW020 SCT045 07/05 Q1019 
EGHI 200620Z 19007KT 150V210 9999 SCT045 07/05 Q1018
EGHI 200550Z 18007KT 9999 SCT045 07/05 Q1018
EGHI 192220Z 19006KT 9999 FEW025 07/05 Q1019
EGHI 192150Z 19005KT 9999 FEW022 07/05 Q1019
EGHI 192120Z 18005KT 150V210 9999 FEW022 07/05 Q1019
EGHI 192050Z 19005KT 9999 FEW022 07/05 Q1019
EGHI 192020Z 19005KT 9999 FEW022 07/05 Q1019
EGHI 191950Z 18005KT 9999 FEW022 SCT042 07/05 Q1019 
EGHI 191920Z 18004KT 160V220 9999 FEW022 SCT042 07/05 Q1019